Time;durP1;ratioP1;P1;durP2;ratioP2;P2;SDS_P1;SDS_P2;PMS_P1;PMS_P2;Temp;Humidity;BMP_temperature;BMP_pressure;BME280_temperature;BME280_humidity;BME280_pressure;Samples;Min_cycle;Max_cycle;Signal;HPM_P1;HPM_P2
2022/04/20 00:00:41;;;;;;;6.95;3.55;;;8.10;99.90;;;;;;5052627;28;20048;-79
2022/04/20 00:03:10;;;;;;;3.47;3.13;;;8.10;99.90;;;;;;5035104;28;20381;-81
2022/04/20 00:05:36;;;;;;;4.10;2.75;;;8.10;99.90;;;;;;5038913;28;20123;-79
2022/04/20 00:08:05;;;;;;;5.18;3.03;;;8.10;99.90;;;;;;5037962;28;20076;-79
2022/04/20 00:10:31;;;;;;;5.03;3.13;;;8.10;99.90;;;;;;5025865;28;20081;-80
2022/04/20 00:12:57;;;;;;;5.05;3.13;;;8.10;99.90;;;;;;5026636;28;20052;-79
2022/04/20 00:15:23;;;;;;;9.30;3.35;;;8.10;99.90;;;;;;5021457;28;20663;-81
2022/04/20 00:17:49;;;;;;;4.60;3.20;;;8.10;99.90;;;;;;5020308;28;20037;-79
2022/04/20 00:20:15;;;;;;;4.07;2.90;;;8.10;99.90;;;;;;5036394;28;20107;-80
2022/04/20 00:22:41;;;;;;;6.50;3.33;;;8.00;99.90;;;;;;5038773;28;20428;-80
2022/04/20 00:25:07;;;;;;;11.48;3.30;;;8.20;99.90;;;;;;5032177;28;20044;-80
2022/04/20 00:27:35;;;;;;;4.72;2.80;;;8.00;99.90;;;;;;5025643;28;20036;-81
2022/04/20 00:30:05;;;;;;;4.78;2.78;;;8.00;99.90;;;;;;5053899;28;20463;-79
2022/04/20 00:32:32;;;;;;;5.15;3.30;;;8.00;99.90;;;;;;5019822;28;20048;-79
2022/04/20 00:34:58;;;;;;;3.13;2.38;;;8.00;99.90;;;;;;5012651;28;20047;-79
2022/04/20 00:37:24;;;;;;;7.20;3.15;;;8.00;99.90;;;;;;5045872;28;20479;-79
2022/04/20 00:39:50;;;;;;;5.00;3.15;;;7.90;99.90;;;;;;5046122;28;20048;-79
2022/04/20 00:42:16;;;;;;;7.60;3.20;;;7.90;99.90;;;;;;5045175;28;20899;-79
2022/04/20 00:44:45;;;;;;;4.93;3.30;;;8.00;99.90;;;;;;5034458;28;20040;-79
2022/04/20 00:47:11;;;;;;;8.38;3.63;;;7.90;99.90;;;;;;5045822;28;20163;-80
2022/04/20 00:49:37;;;;;;;5.97;3.35;;;7.90;99.90;;;;;;5031695;28;20124;-80
2022/04/20 00:52:07;;;;;;;7.00;3.30;;;7.90;99.90;;;;;;5032327;28;20048;-78
2022/04/20 00:54:32;;;;;;;11.13;3.38;;;7.90;99.90;;;;;;5030230;28;20059;-81
2022/04/20 00:56:58;;;;;;;5.25;3.28;;;7.80;99.90;;;;;;5041152;28;20072;-80
2022/04/20 00:59:26;;;;;;;3.80;3.20;;;7.80;99.90;;;;;;5043782;28;20474;-80
2022/04/20 01:01:52;;;;;;;10.30;3.47;;;7.70;99.90;;;;;;5038625;28;20106;-80
2022/04/20 01:04:18;;;;;;;7.25;3.63;;;7.70;99.90;;;;;;5045026;28;20103;-79
2022/04/20 01:06:45;;;;;;;6.82;3.63;;;7.70;99.90;;;;;;5043121;28;20055;-80
2022/04/20 01:09:11;;;;;;;4.93;3.22;;;7.70;99.90;;;;;;5031401;28;20455;-79
2022/04/20 01:11:37;;;;;;;7.20;3.80;;;7.70;99.90;;;;;;5047518;28;20037;-79
2022/04/20 01:14:03;;;;;;;5.15;3.00;;;7.60;99.90;;;;;;5028423;28;20407;-80
2022/04/20 01:16:29;;;;;;;8.80;3.33;;;7.60;99.90;;;;;;5030135;28;20067;-79
2022/04/20 01:18:55;;;;;;;4.18;3.13;;;7.50;99.90;;;;;;5031759;28;20044;-78
2022/04/20 01:21:23;;;;;;;6.88;4.00;;;8.00;99.90;;;;;;5029736;28;20033;-79
2022/04/20 01:23:49;;;;;;;8.48;3.38;;;7.50;99.90;;;;;;5026754;28;20483;-80
2022/04/20 01:26:15;;;;;;;8.40;3.90;;;7.40;99.90;;;;;;5042907;28;20032;-81
2022/04/20 01:28:44;;;;;;;7.53;3.75;;;7.40;99.90;;;;;;5030799;28;20059;-80
2022/04/20 01:31:16;;;;;;;5.65;3.33;;;7.40;99.90;;;;;;5058624;28;20040;-80
2022/04/20 01:33:43;;;;;;;12.35;3.58;;;7.40;99.90;;;;;;5026836;28;20411;-80
2022/04/20 01:36:13;;;;;;;4.68;3.38;;;7.40;99.90;;;;;;5021147;28;20630;-80
2022/04/20 01:38:39;;;;;;;5.80;3.67;;;7.40;99.90;;;;;;5040402;28;20044;-80
2022/04/20 01:41:05;;;;;;;5.10;3.53;;;7.40;99.90;;;;;;5038616;28;20041;-81
2022/04/20 01:43:32;;;;;;;8.18;3.58;;;7.30;99.90;;;;;;5026989;28;20049;-80
2022/04/20 01:45:58;;;;;;;7.88;4.40;;;7.30;99.90;;;;;;5039936;28;20133;-80
2022/04/20 01:48:24;;;;;;;6.35;3.70;;;7.40;99.90;;;;;;5028499;28;20052;-81
2022/04/20 01:53:33;;;;;;;6.50;3.65;;;7.40;99.90;;;;;;5042403;28;20044;-81
2022/04/20 01:56:00;;;;;;;6.85;3.72;;;7.20;99.90;;;;;;5026389;28;20037;-80
2022/04/20 01:58:26;;;;;;;6.50;3.60;;;7.20;99.90;;;;;;5039146;28;20163;-79
2022/04/20 02:00:52;;;;;;;6.25;4.15;;;7.20;99.90;;;;;;5041293;28;20119;-80
2022/04/20 02:03:18;;;;;;;4.88;3.47;;;7.80;99.90;;;;;;5040428;28;20131;-80
2022/04/20 02:05:43;;;;;;;7.25;3.65;;;7.20;99.90;;;;;;5040581;28;20133;-80
2022/04/20 02:08:09;;;;;;;5.15;3.38;;;7.20;99.90;;;;;;5001708;28;20171;-81
2022/04/20 02:10:35;;;;;;;8.18;4.22;;;7.20;99.90;;;;;;5036819;28;20051;-80
2022/04/20 02:13:01;;;;;;;7.28;4.15;;;7.20;99.90;;;;;;5037612;28;20422;-81
2022/04/20 02:15:27;;;;;;;6.78;3.70;;;7.20;99.90;;;;;;5021931;28;20032;-81
2022/04/20 02:17:53;;;;;;;8.35;3.92;;;7.10;99.90;;;;;;5020007;28;20064;-80
2022/04/20 02:20:19;;;;;;;7.88;3.83;;;7.10;99.90;;;;;;5039033;28;20047;-81
2022/04/20 02:22:45;;;;;;;7.05;3.30;;;7.10;99.90;;;;;;5042888;28;20036;-82
2022/04/20 02:25:11;;;;;;;10.00;4.07;;;7.10;99.90;;;;;;5030722;28;20114;-81
2022/04/20 02:27:37;;;;;;;7.40;4.15;;;7.50;99.90;;;;;;5025910;28;20578;-80
2022/04/20 02:30:04;;;;;;;8.43;4.00;;;7.10;99.90;;;;;;5040481;28;20078;-82
2022/04/20 02:32:30;;;;;;;6.97;3.83;;;6.90;99.90;;;;;;5042448;28;20566;-81
2022/04/20 02:34:56;;;;;;;8.70;3.95;;;7.00;99.90;;;;;;5024131;28;20127;-80
2022/04/20 02:37:22;;;;;;;6.93;3.60;;;7.00;99.90;;;;;;5037727;28;20357;-81
2022/04/20 02:39:48;;;;;;;7.88;3.72;;;7.00;99.90;;;;;;5041005;28;20172;-80
2022/04/20 02:42:16;;;;;;;5.53;3.30;;;7.40;99.90;;;;;;5048342;28;20131;-79
2022/04/20 02:44:43;;;;;;;8.32;3.95;;;7.10;99.90;;;;;;5040185;28;20047;-79
2022/04/20 02:47:09;;;;;;;6.63;3.72;;;7.10;99.90;;;;;;5045294;28;20045;-78
2022/04/20 02:49:35;;;;;;;6.53;4.07;;;7.00;99.90;;;;;;5023318;28;20040;-82
2022/04/20 02:52:01;;;;;;;7.18;4.00;;;7.40;99.90;;;;;;5022179;28;20057;-80
2022/04/20 02:54:27;;;;;;;5.18;3.88;;;7.00;99.90;;;;;;5023182;28;20041;-79
2022/04/20 02:56:53;;;;;;;6.03;3.72;;;7.00;99.90;;;;;;5044011;28;20041;-81
2022/04/20 02:59:19;;;;;;;6.07;3.55;;;7.00;99.90;;;;;;5041280;28;20083;-80
2022/04/20 03:01:44;;;;;;;12.15;4.15;;;6.90;99.90;;;;;;5020247;28;20092;-81
2022/04/20 03:04:11;;;;;;;7.88;4.30;;;6.90;99.90;;;;;;5020641;28;20045;-80
2022/04/20 03:06:37;;;;;;;7.28;4.15;;;7.00;99.90;;;;;;5021990;28;20048;-80
2022/04/20 03:09:03;;;;;;;6.75;4.30;;;7.40;99.90;;;;;;5039215;28;20037;-80
2022/04/20 03:11:29;;;;;;;7.13;4.00;;;6.80;99.90;;;;;;5024236;28;20051;-80
2022/04/20 03:13:56;;;;;;;6.25;4.10;;;6.80;99.90;;;;;;5038058;28;20041;-80
2022/04/20 03:16:22;;;;;;;6.05;3.92;;;6.70;99.90;;;;;;5017832;28;20029;-80
2022/04/20 03:18:48;;;;;;;7.28;4.22;;;6.70;99.90;;;;;;5033827;28;20767;-81
2022/04/20 03:21:14;;;;;;;6.05;3.75;;;6.60;99.90;;;;;;5005151;28;20041;-79
2022/04/20 03:23:40;;;;;;;6.93;3.95;;;6.70;99.90;;;;;;5016326;28;20037;-81
2022/04/20 03:26:06;;;;;;;8.98;4.22;;;6.70;99.90;;;;;;5037737;28;20040;-79
2022/04/20 03:28:32;;;;;;;6.82;3.83;;;6.60;99.90;;;;;;5020611;28;20055;-80
2022/04/20 03:30:59;;;;;;;7.78;4.00;;;6.60;99.90;;;;;;5024701;28;20041;-82
2022/04/20 03:33:25;;;;;;;5.97;4.03;;;6.60;99.90;;;;;;5037737;28;20214;-80
2022/04/20 03:35:51;;;;;;;5.85;3.80;;;6.50;99.90;;;;;;5017373;28;20441;-80
2022/04/20 03:38:17;;;;;;;7.35;3.92;;;6.60;99.90;;;;;;5015234;28;20064;-80
2022/04/20 03:40:45;;;;;;;9.25;4.55;;;6.50;99.90;;;;;;5034252;28;20376;-80
2022/04/20 03:43:11;;;;;;;6.97;3.83;;;6.50;99.90;;;;;;5033411;28;20052;-81
2022/04/20 03:45:37;;;;;;;6.22;4.00;;;6.60;99.90;;;;;;5016586;28;20053;-81
2022/04/20 03:48:04;;;;;;;8.50;3.92;;;6.50;99.90;;;;;;5015961;28;20041;-81
2022/04/20 03:50:30;;;;;;;6.68;4.20;;;6.50;99.90;;;;;;5036836;28;20056;-83
2022/04/20 03:52:56;;;;;;;7.88;4.43;;;6.50;99.90;;;;;;5014239;28;20151;-81
2022/04/20 03:55:22;;;;;;;9.07;4.03;;;7.20;99.90;;;;;;5032204;28;20086;-81
2022/04/20 03:57:48;;;;;;;9.25;4.22;;;6.50;99.90;;;;;;5033156;28;20044;-82
2022/04/20 04:00:14;;;;;;;7.38;3.97;;;6.50;99.90;;;;;;5034873;28;20136;-81
2022/04/20 04:02:39;;;;;;;7.60;4.28;;;6.50;99.90;;;;;;5017194;28;20048;-82
2022/04/20 04:05:06;;;;;;;8.57;4.40;;;6.40;99.90;;;;;;5037762;28;20048;-82
2022/04/20 04:11:12;;;;;;;9.27;4.18;;;6.40;99.90;;;;;;5050174;28;20083;-80
2022/04/20 04:13:38;;;;;;;8.93;3.85;;;6.90;99.90;;;;;;5025506;28;20049;-80
2022/04/20 04:16:04;;;;;;;6.18;4.18;;;6.50;99.90;;;;;;5048787;28;20084;-80
2022/04/20 04:18:30;;;;;;;4.82;4.18;;;6.50;99.90;;;;;;5025408;28;20148;-82
2022/04/20 04:20:55;;;;;;;5.97;4.35;;;6.50;99.90;;;;;;5035838;28;20117;-82
2022/04/20 04:23:21;;;;;;;6.90;4.07;;;6.40;99.90;;;;;;5015055;28;20042;-81
2022/04/20 04:25:47;;;;;;;11.98;4.45;;;6.50;99.90;;;;;;5021883;28;20041;-81
2022/04/20 04:28:12;;;;;;;8.48;4.55;;;6.90;99.90;;;;;;5036793;28;20029;-81
2022/04/20 04:30:38;;;;;;;7.40;4.35;;;6.40;99.90;;;;;;5016692;28;20041;-82
2022/04/20 04:33:04;;;;;;;6.85;4.28;;;6.70;99.90;;;;;;5038193;28;20043;-82
2022/04/20 04:35:30;;;;;;;7.35;4.53;;;6.40;99.90;;;;;;5042079;28;20499;-80
2022/04/20 04:37:56;;;;;;;8.25;4.38;;;6.40;99.90;;;;;;5019588;28;20041;-80
2022/04/20 04:40:21;;;;;;;7.22;4.40;;;6.40;99.90;;;;;;5018890;28;20484;-82
2022/04/20 04:42:47;;;;;;;7.53;4.25;;;6.40;99.90;;;;;;5018025;28;20084;-80
2022/04/20 04:50:41;;;;;;;8.68;4.75;;;6.40;99.90;;;;;;5032839;28;20105;-80
2022/04/20 04:53:07;;;;;;;11.18;4.93;;;6.50;99.90;;;;;;5016268;28;20061;-81
2022/04/20 04:55:32;;;;;;;6.80;4.22;;;6.30;99.90;;;;;;5037017;28;20037;-82
2022/04/20 04:57:58;;;;;;;8.98;4.55;;;6.40;99.90;;;;;;5022466;28;20045;-80
2022/04/20 05:00:23;;;;;;;7.00;4.43;;;6.30;99.90;;;;;;5020073;28;20109;-80
2022/04/20 05:02:49;;;;;;;8.75;4.55;;;6.30;99.90;;;;;;5036836;28;20437;-81
2022/04/20 05:05:15;;;;;;;9.27;4.82;;;6.20;99.90;;;;;;5035226;28;20037;-81
2022/04/20 05:07:40;;;;;;;12.20;4.65;;;6.30;99.90;;;;;;5038328;28;20040;-81
2022/04/20 05:10:06;;;;;;;6.20;4.18;;;6.80;99.90;;;;;;5019966;28;20112;-81
2022/04/20 05:12:35;;;;;;;8.65;4.75;;;6.30;99.90;;;;;;5035746;28;20038;-81
2022/04/20 05:15:01;;;;;;;11.35;4.68;;;6.70;99.90;;;;;;5040241;28;20434;-80
2022/04/20 05:17:27;;;;;;;8.50;4.63;;;6.60;99.90;;;;;;5007335;28;20086;-80
2022/04/20 05:19:53;;;;;;;8.10;4.47;;;6.60;99.90;;;;;;5021539;28;20061;-81
2022/04/20 05:22:18;;;;;;;9.80;4.50;;;6.50;99.90;;;;;;5036877;28;20056;-80
2022/04/20 05:24:44;;;;;;;6.03;4.57;;;6.50;99.90;;;;;;5041676;28;20043;-80
2022/04/20 05:27:10;;;;;;;12.75;4.88;;;6.60;99.90;;;;;;5020986;28;20049;-80
2022/04/20 05:29:35;;;;;;;8.98;4.82;;;6.60;99.90;;;;;;5022285;28;20049;-80
2022/04/20 05:32:02;;;;;;;7.82;4.72;;;6.70;99.90;;;;;;5039269;28;20040;-79
2022/04/20 05:34:30;;;;;;;8.45;4.82;;;6.70;99.90;;;;;;5041642;28;20127;-79
2022/04/20 05:42:24;;;;;;;9.27;4.90;;;6.80;99.90;;;;;;5039683;28;20045;-78
2022/04/20 05:44:50;;;;;;;9.32;5.10;;;6.80;99.90;;;;;;5041113;28;20122;-79
2022/04/20 05:47:16;;;;;;;12.63;4.78;;;6.80;99.90;;;;;;5038965;28;20053;-79
2022/04/20 05:49:41;;;;;;;7.93;4.13;;;6.90;99.90;;;;;;5036430;28;20045;-79
2022/04/20 05:52:07;;;;;;;12.60;4.80;;;7.00;99.90;;;;;;5038959;28;20548;-78
2022/04/20 05:54:33;;;;;;;7.95;4.65;;;7.10;99.90;;;;;;5037464;28;20075;-79
2022/04/20 05:56:58;;;;;;;7.70;4.97;;;7.10;99.90;;;;;;5035782;28;20711;-79
2022/04/20 05:59:25;;;;;;;8.43;4.70;;;7.10;99.90;;;;;;5036792;28;20092;-80
2022/04/20 06:01:50;;;;;;;8.52;4.72;;;7.20;99.90;;;;;;5024901;28;20079;-80
2022/04/20 06:04:16;;;;;;;7.30;4.68;;;7.30;99.90;;;;;;5041516;28;20064;-82
2022/04/20 06:06:42;;;;;;;7.28;4.43;;;7.30;99.90;;;;;;5002832;28;20055;-78
2022/04/20 06:09:08;;;;;;;9.90;4.60;;;7.60;99.90;;;;;;5025508;28;20052;-81
2022/04/20 06:11:34;;;;;;;12.18;4.68;;;7.50;99.90;;;;;;5036861;28;20432;-80
2022/04/20 06:14:00;;;;;;;8.70;4.78;;;7.50;99.90;;;;;;5041740;28;20036;-80
2022/04/20 06:16:26;;;;;;;7.65;5.15;;;7.60;99.90;;;;;;5025767;28;21713;-83
2022/04/20 06:18:52;;;;;;;10.98;4.72;;;7.60;99.90;;;;;;5019917;28;20060;-81
2022/04/20 06:21:18;;;;;;;6.50;4.97;;;8.00;99.90;;;;;;5036960;28;20588;-84
2022/04/20 06:23:43;;;;;;;8.55;5.03;;;7.70;99.90;;;;;;5021729;28;20065;-82
2022/04/20 06:26:10;;;;;;;8.85;4.82;;;7.80;99.90;;;;;;5024365;28;20140;-81
2022/04/20 06:28:36;;;;;;;9.02;4.60;;;7.90;99.90;;;;;;5017508;28;20041;-79
2022/04/20 06:31:01;;;;;;;11.85;4.95;;;7.90;99.90;;;;;;5021069;28;20053;-79
2022/04/20 06:33:27;;;;;;;7.10;5.13;;;8.00;99.90;;;;;;5022386;28;20134;-78
2022/04/20 06:35:53;;;;;;;7.53;4.80;;;8.10;99.90;;;;;;5019039;28;20045;-81
2022/04/20 06:38:20;;;;;;;10.27;5.28;;;8.10;99.90;;;;;;5022030;28;20106;-78
2022/04/20 06:40:46;;;;;;;9.85;5.32;;;8.30;99.90;;;;;;5035932;28;20041;-80
2022/04/20 06:43:12;;;;;;;9.35;4.88;;;8.30;99.90;;;;;;5021434;28;20049;-81
2022/04/20 06:45:37;;;;;;;9.10;4.78;;;8.70;99.90;;;;;;5040340;28;20040;-80
2022/04/20 06:48:04;;;;;;;8.63;4.50;;;8.50;99.90;;;;;;5027663;28;20103;-81
2022/04/20 06:50:29;;;;;;;8.95;4.63;;;8.60;99.90;;;;;;5020350;28;20060;-78
2022/04/20 06:58:34;;;;;;;12.25;4.40;;;8.70;99.90;;;;;;5040873;28;20131;-78
2022/04/20 07:00:59;;;;;;;7.97;4.28;;;8.70;99.90;;;;;;5026728;28;20160;-81
2022/04/20 07:03:25;;;;;;;10.70;4.00;;;8.80;99.90;;;;;;5046602;28;20442;-80
2022/04/20 07:05:52;;;;;;;6.45;3.85;;;8.70;99.90;;;;;;5043522;28;20041;-80
2022/04/20 07:08:19;;;;;;;6.72;4.50;;;9.00;99.90;;;;;;5044961;28;20102;-79
2022/04/20 07:10:47;;;;;;;6.22;3.95;;;8.90;99.90;;;;;;5043556;28;20045;-80
2022/04/20 07:13:13;;;;;;;11.68;4.10;;;9.70;99.90;;;;;;5024165;28;20044;-79
2022/04/20 07:15:39;;;;;;;6.90;4.20;;;9.00;99.90;;;;;;5044309;28;20462;-78
2022/04/20 07:18:05;;;;;;;8.55;4.10;;;9.10;99.90;;;;;;5045609;28;20048;-78
2022/04/20 07:20:31;;;;;;;11.48;4.38;;;9.60;99.90;;;;;;5051696;28;20040;-78
2022/04/20 07:22:57;;;;;;;10.52;4.38;;;9.20;99.90;;;;;;5052659;28;20119;-78
2022/04/20 07:25:23;;;;;;;7.60;3.83;;;9.10;99.90;;;;;;5051169;28;20052;-79
2022/04/20 07:27:48;;;;;;;9.40;3.90;;;9.30;99.90;;;;;;5047282;28;20045;-79
2022/04/20 07:30:16;;;;;;;9.75;4.30;;;9.40;99.90;;;;;;5025809;28;20383;-78
2022/04/20 07:32:44;;;;;;;9.90;4.47;;;9.40;99.90;;;;;;5035096;28;20124;-79
2022/04/20 07:35:10;;;;;;;8.90;4.53;;;9.50;99.90;;;;;;5052291;28;20194;-79
2022/04/20 07:37:37;;;;;;;7.30;3.90;;;9.60;99.90;;;;;;5033998;28;20570;-79
2022/04/20 07:40:03;;;;;;;6.28;3.55;;;9.70;99.90;;;;;;5050940;28;20139;-78
2022/04/20 07:42:29;;;;;;;6.32;3.10;;;9.80;99.90;;;;;;5034514;28;20041;-79
2022/04/20 07:44:56;;;;;;;4.15;3.17;;;10.00;99.90;;;;;;5036177;28;20115;-79
2022/04/20 07:47:27;;;;;;;6.85;3.80;;;10.00;99.90;;;;;;5033741;28;20048;-79
2022/04/20 07:52:42;;;;;;;5.53;3.30;;;10.10;99.90;;;;;;5042930;28;20131;-79
2022/04/20 07:55:13;;;;;;;6.90;2.22;;;10.20;99.90;;;;;;5028891;28;20067;-78
2022/04/20 07:57:42;;;;;;;3.78;2.58;;;10.70;99.90;;;;;;5046488;28;20052;-78
2022/04/20 08:00:10;;;;;;;4.97;3.22;;;11.10;99.90;;;;;;5061970;28;20471;-81
2022/04/20 08:02:36;;;;;;;4.88;2.47;;;11.20;99.90;;;;;;5021532;28;20143;-80
2022/04/20 08:05:02;;;;;;;5.10;2.88;;;11.30;99.90;;;;;;5019979;28;20143;-79
2022/04/20 08:07:28;;;;;;;5.07;2.90;;;11.60;99.90;;;;;;5042143;28;20155;-81
2022/04/20 08:10:15;;;;;;;5.03;2.33;;;11.50;99.90;;;;;;5035434;28;20040;-82
2022/04/20 08:12:43;;;;;;;4.57;2.10;;;12.00;99.90;;;;;;5041872;28;20076;-83
2022/04/20 08:15:09;;;;;;;4.72;1.80;;;12.10;99.90;;;;;;5030029;28;20052;-82
2022/04/20 08:17:35;;;;;;;8.73;2.40;;;12.10;99.90;;;;;;5029897;28;20122;-81
2022/04/20 08:20:06;;;;;;;4.93;2.65;;;12.20;99.90;;;;;;5048757;28;20033;-81
2022/04/20 08:22:32;;;;;;;8.18;2.70;;;12.10;99.90;;;;;;5047497;28;20529;-82
2022/04/20 08:25:53;;;;;;;3.08;2.08;;;12.10;99.90;;;;;;5050576;28;20053;-80
2022/04/20 08:28:19;;;;;;;5.93;2.22;;;12.00;99.90;;;;;;5028257;28;20369;-81
2022/04/20 08:30:44;;;;;;;2.40;1.90;;;12.20;99.90;;;;;;5039527;28;20055;-80
2022/04/20 08:33:10;;;;;;;6.55;2.53;;;12.30;99.90;;;;;;5029705;28;20132;-80
2022/04/20 08:35:37;;;;;;;3.17;2.00;;;12.70;99.90;;;;;;5046795;28;20053;-80
2022/04/20 08:38:03;;;;;;;4.68;2.05;;;12.10;99.90;;;;;;5034165;28;20841;-81
2022/04/20 08:40:30;;;;;;;4.03;2.40;;;12.20;99.90;;;;;;5050273;28;20048;-81
2022/04/20 08:43:00;;;;;;;3.40;1.95;;;12.20;99.90;;;;;;5055724;28;20418;-81
2022/04/20 08:45:28;;;;;;;2.70;2.00;;;12.20;99.90;;;;;;5034838;28;20057;-81
2022/04/20 08:47:56;;;;;;;2.10;1.63;;;12.30;99.90;;;;;;5072401;28;20498;-81
2022/04/20 08:50:24;;;;;;;6.35;1.70;;;12.40;99.20;;;;;;5047531;28;20147;-81
2022/04/20 08:52:51;;;;;;;1.55;1.40;;;12.70;97.80;;;;;;5036898;28;20120;-81
2022/04/20 08:55:18;;;;;;;1.90;1.52;;;12.90;98.90;;;;;;5030109;28;20053;-83
2022/04/20 08:57:46;;;;;;;4.15;1.92;;;12.50;98.30;;;;;;5040534;28;20056;-84
2022/04/20 09:00:21;;;;;;;4.10;1.23;;;12.90;99.10;;;;;;5040548;28;20040;-84
2022/04/20 09:02:50;;;;;;;2.25;1.52;;;13.00;99.50;;;;;;5032859;28;20102;-84
2022/04/20 09:05:16;;;;;;;1.98;1.40;;;13.20;99.90;;;;;;5032629;28;20055;-84
2022/04/20 09:07:41;;;;;;;3.03;1.48;;;13.40;99.70;;;;;;5071266;28;20036;-84
2022/04/20 09:10:23;;;;;;;4.47;1.60;;;13.40;96.40;;;;;;5031595;28;20476;-85
2022/04/20 09:13:23;;;;;;;5.55;1.50;;;13.40;94.90;;;;;;5053668;28;20089;-83
2022/04/20 09:15:50;;;;;;;4.55;1.58;;;13.60;96.20;;;;;;5033402;28;20380;-83
2022/04/20 09:18:19;;;;;;;4.38;1.80;;;13.60;96.20;;;;;;5040434;28;20045;-84
2022/04/20 09:20:46;;;;;;;3.67;1.52;;;13.50;94.30;;;;;;5048599;28;20044;-83
2022/04/20 09:23:15;;;;;;;4.45;1.60;;;13.40;93.30;;;;;;5034376;28;20112;-83
2022/04/20 09:25:47;;;;;;;4.75;1.63;;;13.70;93.80;;;;;;5056188;28;20098;-83
2022/04/20 09:28:13;;;;;;;2.15;1.40;;;13.80;96.60;;;;;;5033438;28;20384;-83
2022/04/20 09:30:41;;;;;;;2.88;1.50;;;13.80;94.30;;;;;;5052928;28;20195;-83
2022/04/20 09:33:09;;;;;;;2.88;1.65;;;13.90;94.60;;;;;;5034535;28;20094;-83
2022/04/20 09:35:52;;;;;;;3.70;1.75;;;13.80;93.60;;;;;;5026161;28;20058;-82
2022/04/20 09:38:18;;;;;;;3.47;1.50;;;13.90;94.40;;;;;;5037244;28;20043;-83
2022/04/20 09:44:26;;;;;;;3.53;1.75;;;13.80;93.80;;;;;;5073001;28;20040;-82
2022/04/20 09:49:57;;;;;;;7.22;1.50;;;13.60;94.70;;;;;;5065553;28;20041;-78
2022/04/20 09:52:44;;;;;;;3.67;1.73;;;13.90;94.70;;;;;;5054787;28;20084;-81
2022/04/20 09:55:27;;;;;;;6.97;1.80;;;13.90;94.40;;;;;;5051077;28;20084;-77
2022/04/20 09:58:08;;;;;;;9.07;1.90;;;13.90;92.80;;;;;;5041562;28;20132;-78
2022/04/20 10:00:39;;;;;;;7.70;1.73;;;14.10;93.90;;;;;;5044828;28;20048;-76
2022/04/20 10:03:05;;;;;;;8.75;1.70;;;14.10;93.10;;;;;;5043513;28;20076;-77
2022/04/20 10:05:31;;;;;;;3.78;1.63;;;14.10;94.00;;;;;;5024606;28;20083;-75
2022/04/20 10:07:59;;;;;;;3.63;1.85;;;14.40;93.20;;;;;;5027019;28;20041;-79
2022/04/20 10:10:28;;;;;;;1.75;1.58;;;14.50;91.60;;;;;;5049105;28;20080;-80
2022/04/20 10:12:55;;;;;;;4.13;1.60;;;14.50;91.50;;;;;;5028662;28;20453;-81
2022/04/20 10:18:21;;;;;;;2.50;1.58;;;14.70;90.40;;;;;;5040506;28;20055;-81
2022/04/20 10:20:54;;;;;;;3.40;1.30;;;14.50;91.00;;;;;;5033569;28;20040;-80
2022/04/20 10:23:22;;;;;;;1.92;1.30;;;14.60;90.70;;;;;;5040143;28;20045;-80
2022/04/20 10:25:57;;;;;;;3.35;1.40;;;14.90;88.20;;;;;;5040953;28;20135;-81
2022/04/20 10:28:44;;;;;;;5.85;1.83;;;15.20;88.30;;;;;;5045726;28;20036;-79
2022/04/20 10:31:35;;;;;;;1.88;1.70;;;15.10;87.50;;;;;;5039833;28;20453;-79
2022/04/20 10:34:02;;;;;;;2.75;1.70;;;15.10;88.50;;;;;;5040221;28;20076;-79
2022/04/20 10:36:30;;;;;;;2.60;1.83;;;15.40;89.60;;;;;;5024555;28;20051;-81
2022/04/20 10:39:22;;;;;;;1.90;1.60;;;15.60;90.90;;;;;;5041260;28;20496;-80
2022/04/20 10:42:17;;;;;;;3.05;1.23;;;15.70;87.60;;;;;;5044038;28;20048;-79
2022/04/20 10:45:03;;;;;;;3.60;1.38;;;15.60;85.10;;;;;;5025691;28;20055;-81
2022/04/20 10:47:38;;;;;;;2.72;1.50;;;15.70;85.80;;;;;;5027269;28;20056;-80
2022/04/20 10:50:16;;;;;;;;;;;15.90;86.60;;;;;;5025167;28;20056;-81
2022/04/20 10:55:36;;;;;;;4.47;1.30;;;16.30;81.80;;;;;;5042052;28;20053;-80
2022/04/20 10:58:04;;;;;;;4.03;1.50;;;16.60;79.00;;;;;;5026044;28;20047;-80
2022/04/20 11:00:35;;;;;;;2.55;1.33;;;16.60;77.10;;;;;;5055207;28;20831;-79
2022/04/20 11:03:06;;;;;;;3.00;1.30;;;16.50;76.70;;;;;;5025215;28;20083;-79
2022/04/20 11:05:48;;;;;;;5.18;1.25;;;16.50;74.70;;;;;;5026665;28;20049;-81
2022/04/20 11:08:16;;;;;;;5.65;1.40;;;17.00;73.40;;;;;;5029919;28;20488;-80
2022/04/20 11:19:53;;;;;;;1.83;1.10;;;17.60;74.80;;;;;;5042018;28;20399;-81
2022/04/20 11:22:19;;;;;;;3.83;1.20;;;17.50;76.60;;;;;;5023102;28;20302;-81
2022/04/20 11:24:45;;;;;;;1.55;0.90;;;17.60;76.10;;;;;;5022974;28;20191;-80
2022/04/20 11:27:12;;;;;;;2.97;0.93;;;17.60;73.10;;;;;;5023345;28;20037;-80
2022/04/20 11:29:43;;;;;;;3.10;1.10;;;17.60;77.40;;;;;;5042337;28;20044;-79
2022/04/20 11:32:10;;;;;;;1.67;0.98;;;17.70;75.40;;;;;;5037778;28;20053;-79
2022/04/20 11:34:39;;;;;;;2.05;1.00;;;17.70;73.90;;;;;;5041120;28;20067;-81
2022/04/20 11:37:07;;;;;;;1.10;1.00;;;18.00;73.80;;;;;;5028040;28;20080;-83
2022/04/20 11:39:33;;;;;;;1.52;1.10;;;18.30;72.30;;;;;;5040875;28;20063;-85
2022/04/20 11:42:01;;;;;;;3.28;1.10;;;18.20;73.70;;;;;;5030237;28;20143;-83
2022/04/20 11:44:40;;;;;;;2.70;1.40;;;18.40;74.30;;;;;;5026587;28;20036;-83
2022/04/20 11:47:11;;;;;;;1.10;1.00;;;18.70;71.70;;;;;;5044195;28;20064;-82
2022/04/20 11:49:42;;;;;;;1.23;0.90;;;18.80;71.30;;;;;;5042680;28;20068;-80
2022/04/20 11:52:11;;;;;;;1.45;0.82;;;18.70;68.50;;;;;;5022685;28;20150;-80
2022/04/20 11:54:38;;;;;;;2.45;1.00;;;18.90;68.00;;;;;;5041020;28;20060;-80
2022/04/20 11:57:05;;;;;;;2.13;0.90;;;18.80;67.40;;;;;;5040000;28;20140;-78
2022/04/20 11:59:31;;;;;;;2.70;0.98;;;18.70;67.50;;;;;;5040827;28;20052;-77
2022/04/20 12:01:56;;;;;;;3.17;0.98;;;18.80;69.40;;;;;;5038534;28;20048;-79
2022/04/20 12:04:27;;;;;;;3.65;1.23;;;18.90;71.50;;;;;;5020646;28;20051;-79
2022/04/20 12:07:00;;;;;;;1.42;0.90;;;19.00;69.90;;;;;;5034181;28;20063;-78
2022/04/20 12:09:36;;;;;;;2.30;0.93;;;19.10;68.30;;;;;;5024682;28;20145;-77
2022/04/20 12:12:07;;;;;;;5.97;1.10;;;19.10;67.30;;;;;;5043137;28;20151;-80
2022/04/20 12:14:35;;;;;;;1.10;0.90;;;19.40;72.90;;;;;;5025773;28;20059;-78
2022/04/20 12:17:10;;;;;;;1.33;1.00;;;19.00;69.10;;;;;;5029449;28;20517;-78
2022/04/20 12:19:42;;;;;;;1.50;1.00;;;19.10;68.50;;;;;;5069308;28;20139;-81
2022/04/20 12:22:13;;;;;;;1.33;1.00;;;19.40;69.80;;;;;;5030208;28;20045;-81
2022/04/20 12:24:41;;;;;;;2.85;1.00;;;19.90;67.40;;;;;;5051689;28;20040;-80
2022/04/20 12:27:21;;;;;;;4.03;1.20;;;19.40;67.50;;;;;;5029718;28;20052;-79
2022/04/20 12:29:54;;;;;;;1.85;1.00;;;19.40;66.00;;;;;;5030873;28;20055;-78
2022/04/20 12:32:24;;;;;;;1.30;0.90;;;19.00;66.80;;;;;;5037030;28;20048;-80
2022/04/20 12:35:00;;;;;;;3.03;0.93;;;19.50;68.20;;;;;;5028580;28;20101;-79
2022/04/20 12:37:29;;;;;;;4.35;1.17;;;19.50;67.10;;;;;;5035042;28;20037;-79
2022/04/20 12:40:24;;;;;;;1.73;0.80;;;19.10;67.00;;;;;;5045311;28;20139;-82
2022/04/20 12:43:05;;;;;;;1.65;0.90;;;18.50;65.00;;;;;;4942962;28;20051;-81
2022/04/20 12:45:32;;;;;;;8.35;1.20;;;18.80;67.50;;;;;;4928908;29;20047;-80
2022/04/20 12:48:06;;;;;;;2.60;0.95;;;19.10;66.80;;;;;;4929005;29;20097;-83
2022/04/20 12:50:37;;;;;;;3.28;1.00;;;19.30;66.10;;;;;;4944569;28;20148;-81
2022/04/20 12:53:03;;;;;;;5.35;1.08;;;19.40;66.00;;;;;;4951757;28;20055;-82
2022/04/20 12:55:41;;;;;;;4.10;0.80;;;19.10;67.40;;;;;;4919397;28;20035;-81
2022/04/20 13:03:44;;;;;;;1.73;0.82;;;20.20;65.80;;;;;;4941773;29;20047;-81
2022/04/20 13:06:15;;;;;;;2.90;1.20;;;20.40;66.70;;;;;;4919493;29;20059;-81
2022/04/20 13:08:48;;;;;;;1.45;1.15;;;20.40;63.60;;;;;;4951013;28;20058;-81
2022/04/20 13:11:15;;;;;;;3.10;1.10;;;20.30;64.60;;;;;;4920421;29;20149;-82
2022/04/20 13:13:41;;;;;;;1.88;1.10;;;19.80;63.20;;;;;;4920518;29;20064;-81
2022/04/20 13:16:10;;;;;;;2.97;1.20;;;19.90;65.60;;;;;;4932528;28;20039;-83
2022/04/20 13:18:37;;;;;;;1.52;1.27;;;20.20;65.50;;;;;;4968618;28;20467;-82
2022/04/20 13:21:03;;;;;;;1.95;1.20;;;20.40;64.60;;;;;;5034395;28;20044;-82
2022/04/20 13:23:29;;;;;;;1.65;1.30;;;20.50;66.30;;;;;;5027005;28;20051;-83
2022/04/20 13:28:39;;;;;;;;;;;20.30;71.10;;;;;;5044378;28;20130;-83
2022/04/20 13:31:05;;;;;;;3.65;2.22;;;18.90;77.90;;;;;;5033538;28;20012;-83
2022/04/20 13:33:31;;;;;;;6.80;2.75;;;18.70;81.00;;;;;;5032751;28;20120;-82
2022/04/20 13:36:03;;;;;;;3.83;2.83;;;19.20;82.40;;;;;;5052419;28;20053;-81
2022/04/20 13:38:29;;;;;;;5.65;2.58;;;19.60;80.40;;;;;;5048509;28;20068;-81
2022/04/20 13:40:55;;;;;;;4.38;2.60;;;18.90;81.70;;;;;;5038073;28;20087;-82
2022/04/20 13:43:20;;;;;;;9.98;2.92;;;18.50;84.40;;;;;;5043784;28;20921;-80
2022/04/20 13:45:46;;;;;;;5.40;2.88;;;18.50;86.00;;;;;;5063846;28;20045;-80
2022/04/20 13:48:12;;;;;;;7.35;3.13;;;19.10;85.70;;;;;;5030627;28;20044;-80
2022/04/20 13:50:38;;;;;;;4.80;2.67;;;19.00;86.70;;;;;;5065741;28;20043;-80
2022/04/20 13:53:06;;;;;;;6.78;2.90;;;19.00;87.60;;;;;;5025597;28;20036;-81